sensor_id;sensor_type;location;lat;lon;timestamp;P1;durP1;ratioP1;P2;durP2;ratioP2
751;SDS011;360;48.764;9.164;2022-10-23T00:00:11;4.20;;;2.07;;
751;SDS011;360;48.764;9.164;2022-10-23T00:02:39;3.10;;;2.40;;
751;SDS011;360;48.764;9.164;2022-10-23T00:05:07;2.60;;;1.70;;
751;SDS011;360;48.764;9.164;2022-10-23T00:07:34;6.83;;;1.80;;
751;SDS011;360;48.764;9.164;2022-10-23T00:10:01;2.67;;;1.90;;
751;SDS011;360;48.764;9.164;2022-10-23T00:12:28;2.43;;;1.87;;
751;SDS011;360;48.764;9.164;2022-10-23T00:14:56;3.20;;;2.10;;
751;SDS011;360;48.764;9.164;2022-10-23T00:17:23;2.50;;;1.73;;
751;SDS011;360;48.764;9.164;2022-10-23T00:19:52;4.50;;;1.60;;
751;SDS011;360;48.764;9.164;2022-10-23T00:22:19;2.60;;;1.80;;
751;SDS011;360;48.764;9.164;2022-10-23T00:24:46;1.73;;;1.53;;
751;SDS011;360;48.764;9.164;2022-10-23T00:27:13;2.77;;;2.10;;
751;SDS011;360;48.764;9.164;2022-10-23T00:29:40;2.17;;;1.57;;
751;SDS011;360;48.764;9.164;2022-10-23T00:32:07;2.77;;;1.40;;
751;SDS011;360;48.764;9.164;2022-10-23T00:34:34;2.17;;;1.97;;
751;SDS011;360;48.764;9.164;2022-10-23T00:37:03;2.00;;;1.70;;
751;SDS011;360;48.764;9.164;2022-10-23T00:39:30;4.03;;;1.90;;
751;SDS011;360;48.764;9.164;2022-10-23T00:41:57;2.60;;;1.70;;
751;SDS011;360;48.764;9.164;2022-10-23T00:47:10;2.07;;;1.50;;
751;SDS011;360;48.764;9.164;2022-10-23T00:49:37;2.17;;;1.77;;
751;SDS011;360;48.764;9.164;2022-10-23T00:52:07;2.43;;;2.07;;
751;SDS011;360;48.764;9.164;2022-10-23T00:54:35;1.97;;;1.60;;
751;SDS011;360;48.764;9.164;2022-10-23T00:57:03;2.33;;;1.80;;
751;SDS011;360;48.764;9.164;2022-10-23T00:59:32;2.43;;;1.70;;
751;SDS011;360;48.764;9.164;2022-10-23T01:01:59;2.90;;;1.93;;
751;SDS011;360;48.764;9.164;2022-10-23T01:04:26;2.80;;;1.87;;
751;SDS011;360;48.764;9.164;2022-10-23T01:06:56;1.93;;;1.30;;
751;SDS011;360;48.764;9.164;2022-10-23T01:09:27;6.67;;;1.90;;
751;SDS011;360;48.764;9.164;2022-10-23T01:11:58;2.50;;;1.63;;
751;SDS011;360;48.764;9.164;2022-10-23T01:14:28;2.00;;;1.37;;
751;SDS011;360;48.764;9.164;2022-10-23T01:16:59;1.50;;;1.40;;
751;SDS011;360;48.764;9.164;2022-10-23T01:19:33;2.57;;;1.43;;
751;SDS011;360;48.764;9.164;2022-10-23T01:22:05;1.90;;;1.70;;
751;SDS011;360;48.764;9.164;2022-10-23T01:24:41;3.40;;;2.07;;
751;SDS011;360;48.764;9.164;2022-10-23T01:27:23;8.13;;;2.10;;
751;SDS011;360;48.764;9.164;2022-10-23T01:29:53;2.20;;;1.40;;
751;SDS011;360;48.764;9.164;2022-10-23T01:32:26;3.53;;;1.80;;
751;SDS011;360;48.764;9.164;2022-10-23T01:34:55;1.83;;;1.63;;
751;SDS011;360;48.764;9.164;2022-10-23T01:37:24;2.13;;;1.50;;
751;SDS011;360;48.764;9.164;2022-10-23T01:39:54;3.63;;;1.67;;
751;SDS011;360;48.764;9.164;2022-10-23T01:42:24;2.00;;;1.80;;
751;SDS011;360;48.764;9.164;2022-10-23T01:44:55;3.03;;;2.60;;
751;SDS011;360;48.764;9.164;2022-10-23T01:47:26;1.70;;;1.33;;
751;SDS011;360;48.764;9.164;2022-10-23T01:49:54;2.10;;;1.60;;
751;SDS011;360;48.764;9.164;2022-10-23T01:52:21;1.97;;;1.50;;
751;SDS011;360;48.764;9.164;2022-10-23T01:54:49;2.03;;;1.33;;
751;SDS011;360;48.764;9.164;2022-10-23T01:57:17;4.47;;;2.23;;
751;SDS011;360;48.764;9.164;2022-10-23T01:59:48;2.03;;;1.67;;
751;SDS011;360;48.764;9.164;2022-10-23T02:02:16;8.43;;;1.47;;
751;SDS011;360;48.764;9.164;2022-10-23T02:04:45;2.33;;;1.50;;
751;SDS011;360;48.764;9.164;2022-10-23T02:07:13;1.83;;;1.53;;
751;SDS011;360;48.764;9.164;2022-10-23T02:09:40;3.50;;;1.30;;
751;SDS011;360;48.764;9.164;2022-10-23T02:12:09;6.93;;;1.33;;
751;SDS011;360;48.764;9.164;2022-10-23T02:14:41;3.60;;;1.60;;
751;SDS011;360;48.764;9.164;2022-10-23T02:17:13;2.63;;;1.37;;
751;SDS011;360;48.764;9.164;2022-10-23T02:19:42;3.73;;;2.20;;
751;SDS011;360;48.764;9.164;2022-10-23T02:22:11;2.80;;;1.50;;
751;SDS011;360;48.764;9.164;2022-10-23T02:24:42;27.90;;;2.90;;
751;SDS011;360;48.764;9.164;2022-10-23T02:27:11;1.67;;;1.40;;
751;SDS011;360;48.764;9.164;2022-10-23T02:29:42;1.23;;;1.13;;
751;SDS011;360;48.764;9.164;2022-10-23T02:32:10;2.03;;;1.33;;
751;SDS011;360;48.764;9.164;2022-10-23T02:34:39;11.10;;;2.13;;
751;SDS011;360;48.764;9.164;2022-10-23T02:37:06;2.73;;;1.70;;
751;SDS011;360;48.764;9.164;2022-10-23T02:39:33;3.30;;;1.50;;
751;SDS011;360;48.764;9.164;2022-10-23T02:42:02;2.30;;;1.40;;
751;SDS011;360;48.764;9.164;2022-10-23T02:44:32;1.80;;;1.30;;
751;SDS011;360;48.764;9.164;2022-10-23T02:47:06;2.40;;;1.77;;
751;SDS011;360;48.764;9.164;2022-10-23T02:49:36;1.70;;;1.30;;
751;SDS011;360;48.764;9.164;2022-10-23T02:52:07;2.53;;;1.17;;
751;SDS011;360;48.764;9.164;2022-10-23T02:54:39;1.57;;;1.20;;
751;SDS011;360;48.764;9.164;2022-10-23T02:57:12;3.90;;;1.77;;
751;SDS011;360;48.764;9.164;2022-10-23T02:59:42;1.70;;;1.60;;
751;SDS011;360;48.764;9.164;2022-10-23T03:02:12;2.70;;;1.67;;
751;SDS011;360;48.764;9.164;2022-10-23T03:04:42;3.23;;;1.30;;
751;SDS011;360;48.764;9.164;2022-10-23T03:07:11;2.20;;;1.30;;
751;SDS011;360;48.764;9.164;2022-10-23T03:09:38;2.33;;;1.47;;
751;SDS011;360;48.764;9.164;2022-10-23T03:12:05;2.37;;;1.40;;
751;SDS011;360;48.764;9.164;2022-10-23T03:14:33;1.90;;;1.60;;
751;SDS011;360;48.764;9.164;2022-10-23T03:17:00;5.33;;;1.83;;
751;SDS011;360;48.764;9.164;2022-10-23T03:19:27;1.63;;;1.47;;
751;SDS011;360;48.764;9.164;2022-10-23T03:21:54;6.03;;;1.27;;
751;SDS011;360;48.764;9.164;2022-10-23T03:24:23;2.20;;;1.53;;
751;SDS011;360;48.764;9.164;2022-10-23T03:26:50;4.00;;;2.17;;
751;SDS011;360;48.764;9.164;2022-10-23T03:29:17;2.17;;;1.60;;
751;SDS011;360;48.764;9.164;2022-10-23T03:31:44;2.20;;;1.93;;
751;SDS011;360;48.764;9.164;2022-10-23T03:34:11;1.43;;;1.20;;
751;SDS011;360;48.764;9.164;2022-10-23T03:36:39;1.77;;;1.33;;
751;SDS011;360;48.764;9.164;2022-10-23T03:39:06;2.23;;;1.30;;
751;SDS011;360;48.764;9.164;2022-10-23T03:41:34;2.43;;;1.40;;
751;SDS011;360;48.764;9.164;2022-10-23T03:44:02;1.13;;;1.00;;
751;SDS011;360;48.764;9.164;2022-10-23T03:46:29;1.70;;;1.23;;
751;SDS011;360;48.764;9.164;2022-10-23T03:48:56;2.63;;;1.40;;
751;SDS011;360;48.764;9.164;2022-10-23T03:51:24;1.57;;;1.27;;
751;SDS011;360;48.764;9.164;2022-10-23T03:53:51;1.70;;;1.20;;
751;SDS011;360;48.764;9.164;2022-10-23T03:56:18;2.50;;;1.37;;
751;SDS011;360;48.764;9.164;2022-10-23T03:58:46;2.70;;;1.27;;
751;SDS011;360;48.764;9.164;2022-10-23T04:01:14;2.60;;;1.20;;
751;SDS011;360;48.764;9.164;2022-10-23T04:03:41;1.43;;;1.13;;
751;SDS011;360;48.764;9.164;2022-10-23T04:06:08;2.03;;;1.60;;
751;SDS011;360;48.764;9.164;2022-10-23T04:08:35;8.33;;;1.50;;
751;SDS011;360;48.764;9.164;2022-10-23T04:11:02;1.73;;;1.20;;
751;SDS011;360;48.764;9.164;2022-10-23T04:13:29;2.97;;;1.30;;
751;SDS011;360;48.764;9.164;2022-10-23T04:15:58;1.83;;;1.13;;
751;SDS011;360;48.764;9.164;2022-10-23T04:18:25;2.17;;;1.20;;
751;SDS011;360;48.764;9.164;2022-10-23T04:20:52;1.93;;;1.20;;
751;SDS011;360;48.764;9.164;2022-10-23T04:23:19;9.60;;;1.37;;
751;SDS011;360;48.764;9.164;2022-10-23T04:25:46;1.93;;;1.33;;
751;SDS011;360;48.764;9.164;2022-10-23T04:28:13;5.70;;;1.47;;
751;SDS011;360;48.764;9.164;2022-10-23T04:30:40;1.80;;;1.43;;
751;SDS011;360;48.764;9.164;2022-10-23T04:33:09;2.40;;;1.67;;
751;SDS011;360;48.764;9.164;2022-10-23T04:35:36;1.60;;;1.30;;
751;SDS011;360;48.764;9.164;2022-10-23T04:38:03;3.47;;;1.70;;
751;SDS011;360;48.764;9.164;2022-10-23T04:40:30;1.47;;;1.37;;
751;SDS011;360;48.764;9.164;2022-10-23T04:42:57;4.00;;;1.80;;
751;SDS011;360;48.764;9.164;2022-10-23T04:45:24;3.17;;;1.57;;
751;SDS011;360;48.764;9.164;2022-10-23T04:47:52;3.07;;;1.50;;
751;SDS011;360;48.764;9.164;2022-10-23T04:50:21;5.00;;;1.50;;
751;SDS011;360;48.764;9.164;2022-10-23T04:52:52;2.47;;;1.37;;
751;SDS011;360;48.764;9.164;2022-10-23T04:55:19;1.90;;;1.47;;
751;SDS011;360;48.764;9.164;2022-10-23T04:57:47;1.57;;;1.40;;
751;SDS011;360;48.764;9.164;2022-10-23T05:00:14;2.17;;;1.23;;
751;SDS011;360;48.764;9.164;2022-10-23T05:02:41;6.33;;;1.57;;
751;SDS011;360;48.764;9.164;2022-10-23T05:05:08;3.33;;;1.63;;
751;SDS011;360;48.764;9.164;2022-10-23T05:07:37;1.50;;;1.40;;
751;SDS011;360;48.764;9.164;2022-10-23T05:10:04;2.00;;;1.23;;
751;SDS011;360;48.764;9.164;2022-10-23T05:12:32;1.63;;;1.23;;
751;SDS011;360;48.764;9.164;2022-10-23T05:14:59;2.50;;;1.53;;
751;SDS011;360;48.764;9.164;2022-10-23T05:17:27;1.50;;;1.40;;
751;SDS011;360;48.764;9.164;2022-10-23T05:19:55;2.70;;;2.00;;
751;SDS011;360;48.764;9.164;2022-10-23T05:22:24;1.73;;;1.27;;
751;SDS011;360;48.764;9.164;2022-10-23T05:24:53;2.43;;;1.20;;
751;SDS011;360;48.764;9.164;2022-10-23T05:27:21;4.40;;;1.30;;
751;SDS011;360;48.764;9.164;2022-10-23T05:29:48;1.00;;;0.80;;
751;SDS011;360;48.764;9.164;2022-10-23T05:32:16;1.90;;;1.20;;
751;SDS011;360;48.764;9.164;2022-10-23T05:34:43;2.30;;;1.50;;
751;SDS011;360;48.764;9.164;2022-10-23T05:37:10;3.50;;;1.13;;
751;SDS011;360;48.764;9.164;2022-10-23T05:39:38;2.30;;;1.50;;
751;SDS011;360;48.764;9.164;2022-10-23T05:42:07;1.03;;;0.93;;
751;SDS011;360;48.764;9.164;2022-10-23T05:44:34;1.30;;;1.17;;
751;SDS011;360;48.764;9.164;2022-10-23T05:47:01;2.20;;;1.60;;
751;SDS011;360;48.764;9.164;2022-10-23T05:49:28;1.97;;;1.20;;
751;SDS011;360;48.764;9.164;2022-10-23T05:51:55;1.80;;;1.30;;
751;SDS011;360;48.764;9.164;2022-10-23T05:54:22;1.50;;;1.23;;
751;SDS011;360;48.764;9.164;2022-10-23T05:56:50;2.70;;;1.43;;
751;SDS011;360;48.764;9.164;2022-10-23T05:59:18;2.07;;;1.20;;
751;SDS011;360;48.764;9.164;2022-10-23T06:01:46;1.70;;;1.30;;
751;SDS011;360;48.764;9.164;2022-10-23T06:04:13;2.50;;;1.67;;
751;SDS011;360;48.764;9.164;2022-10-23T06:06:40;1.67;;;1.30;;
751;SDS011;360;48.764;9.164;2022-10-23T06:09:07;1.60;;;1.10;;
751;SDS011;360;48.764;9.164;2022-10-23T06:11:34;2.07;;;1.50;;
751;SDS011;360;48.764;9.164;2022-10-23T06:14:01;1.87;;;1.40;;
751;SDS011;360;48.764;9.164;2022-10-23T06:16:29;1.47;;;1.20;;
751;SDS011;360;48.764;9.164;2022-10-23T06:18:57;1.80;;;1.40;;
751;SDS011;360;48.764;9.164;2022-10-23T06:21:24;6.00;;;1.40;;
751;SDS011;360;48.764;9.164;2022-10-23T06:23:51;2.07;;;1.07;;
751;SDS011;360;48.764;9.164;2022-10-23T06:26:18;2.57;;;1.27;;
751;SDS011;360;48.764;9.164;2022-10-23T06:28:45;2.57;;;1.10;;
751;SDS011;360;48.764;9.164;2022-10-23T06:31:13;1.50;;;1.30;;
751;SDS011;360;48.764;9.164;2022-10-23T06:33:44;1.20;;;1.00;;
751;SDS011;360;48.764;9.164;2022-10-23T06:36:11;2.00;;;1.57;;
751;SDS011;360;48.764;9.164;2022-10-23T06:38:38;1.07;;;0.93;;
751;SDS011;360;48.764;9.164;2022-10-23T06:41:06;2.80;;;1.30;;
751;SDS011;360;48.764;9.164;2022-10-23T06:43:34;3.70;;;1.40;;
751;SDS011;360;48.764;9.164;2022-10-23T06:46:01;1.40;;;1.10;;
751;SDS011;360;48.764;9.164;2022-10-23T06:48:28;1.90;;;1.30;;
751;SDS011;360;48.764;9.164;2022-10-23T06:50:57;1.77;;;0.90;;
751;SDS011;360;48.764;9.164;2022-10-23T06:53:24;1.93;;;1.33;;
751;SDS011;360;48.764;9.164;2022-10-23T06:55:51;6.13;;;1.73;;
751;SDS011;360;48.764;9.164;2022-10-23T06:58:19;1.80;;;1.10;;
751;SDS011;360;48.764;9.164;2022-10-23T07:00:46;1.50;;;1.10;;
751;SDS011;360;48.764;9.164;2022-10-23T07:03:13;3.73;;;1.13;;
751;SDS011;360;48.764;9.164;2022-10-23T07:05:40;2.40;;;1.80;;
751;SDS011;360;48.764;9.164;2022-10-23T07:08:10;4.03;;;1.60;;
751;SDS011;360;48.764;9.164;2022-10-23T07:10:37;1.47;;;1.30;;
751;SDS011;360;48.764;9.164;2022-10-23T07:13:06;2.60;;;1.43;;
751;SDS011;360;48.764;9.164;2022-10-23T07:15:34;2.40;;;1.43;;
751;SDS011;360;48.764;9.164;2022-10-23T07:18:01;1.73;;;1.07;;
751;SDS011;360;48.764;9.164;2022-10-23T07:20:28;1.90;;;1.00;;
751;SDS011;360;48.764;9.164;2022-10-23T07:22:55;2.90;;;1.63;;
751;SDS011;360;48.764;9.164;2022-10-23T07:25:24;2.43;;;1.50;;
751;SDS011;360;48.764;9.164;2022-10-23T07:27:51;1.70;;;0.97;;
751;SDS011;360;48.764;9.164;2022-10-23T07:30:19;13.80;;;1.43;;
751;SDS011;360;48.764;9.164;2022-10-23T07:32:46;4.77;;;2.33;;
751;SDS011;360;48.764;9.164;2022-10-23T07:35:13;1.70;;;1.10;;
751;SDS011;360;48.764;9.164;2022-10-23T07:37:40;2.27;;;1.70;;
751;SDS011;360;48.764;9.164;2022-10-23T07:40:08;1.90;;;1.33;;
751;SDS011;360;48.764;9.164;2022-10-23T07:42:36;1.20;;;1.03;;
751;SDS011;360;48.764;9.164;2022-10-23T07:45:04;2.03;;;1.17;;
751;SDS011;360;48.764;9.164;2022-10-23T07:47:31;1.33;;;1.23;;
751;SDS011;360;48.764;9.164;2022-10-23T07:49:58;1.93;;;1.03;;
751;SDS011;360;48.764;9.164;2022-10-23T07:52:25;1.53;;;1.00;;
751;SDS011;360;48.764;9.164;2022-10-23T07:54:52;2.27;;;1.10;;
751;SDS011;360;48.764;9.164;2022-10-23T07:57:19;2.37;;;1.47;;
751;SDS011;360;48.764;9.164;2022-10-23T07:59:47;1.47;;;1.13;;
751;SDS011;360;48.764;9.164;2022-10-23T08:02:14;1.93;;;1.00;;
751;SDS011;360;48.764;9.164;2022-10-23T08:04:41;2.70;;;1.10;;
751;SDS011;360;48.764;9.164;2022-10-23T08:07:08;1.77;;;1.00;;
751;SDS011;360;48.764;9.164;2022-10-23T08:09:35;5.63;;;1.20;;
751;SDS011;360;48.764;9.164;2022-10-23T08:12:02;2.10;;;1.33;;
751;SDS011;360;48.764;9.164;2022-10-23T08:14:29;2.50;;;2.30;;
751;SDS011;360;48.764;9.164;2022-10-23T08:16:57;1.67;;;1.43;;
751;SDS011;360;48.764;9.164;2022-10-23T08:19:24;2.40;;;1.50;;
751;SDS011;360;48.764;9.164;2022-10-23T08:21:51;1.40;;;1.20;;
751;SDS011;360;48.764;9.164;2022-10-23T08:24:21;1.87;;;1.20;;
751;SDS011;360;48.764;9.164;2022-10-23T08:26:48;2.10;;;1.33;;
751;SDS011;360;48.764;9.164;2022-10-23T08:29:15;1.60;;;1.00;;
751;SDS011;360;48.764;9.164;2022-10-23T08:31:42;3.63;;;1.37;;
751;SDS011;360;48.764;9.164;2022-10-23T08:34:11;1.83;;;1.00;;
751;SDS011;360;48.764;9.164;2022-10-23T08:36:38;1.40;;;1.03;;
751;SDS011;360;48.764;9.164;2022-10-23T08:39:05;1.77;;;0.80;;
751;SDS011;360;48.764;9.164;2022-10-23T08:41:32;0.87;;;0.57;;
751;SDS011;360;48.764;9.164;2022-10-23T08:44:04;6.03;;;1.70;;
751;SDS011;360;48.764;9.164;2022-10-23T08:46:36;2.20;;;1.00;;
751;SDS011;360;48.764;9.164;2022-10-23T08:49:09;3.80;;;1.03;;
751;SDS011;360;48.764;9.164;2022-10-23T08:51:54;6.77;;;1.17;;
751;SDS011;360;48.764;9.164;2022-10-23T08:54:26;2.10;;;1.70;;
751;SDS011;360;48.764;9.164;2022-10-23T08:57:02;4.03;;;2.07;;
751;SDS011;360;48.764;9.164;2022-10-23T08:59:36;2.63;;;1.83;;
751;SDS011;360;48.764;9.164;2022-10-23T09:02:09;4.33;;;2.40;;
751;SDS011;360;48.764;9.164;2022-10-23T09:04:48;2.30;;;1.93;;
751;SDS011;360;48.764;9.164;2022-10-23T09:07:19;3.23;;;2.80;;
751;SDS011;360;48.764;9.164;2022-10-23T09:10:00;1.63;;;1.03;;
751;SDS011;360;48.764;9.164;2022-10-23T09:12:37;1.60;;;1.10;;
751;SDS011;360;48.764;9.164;2022-10-23T09:15:08;1.50;;;1.20;;
751;SDS011;360;48.764;9.164;2022-10-23T09:17:44;3.23;;;1.40;;
751;SDS011;360;48.764;9.164;2022-10-23T09:20:15;1.53;;;1.07;;
751;SDS011;360;48.764;9.164;2022-10-23T09:22:44;4.20;;;1.13;;
751;SDS011;360;48.764;9.164;2022-10-23T09:25:15;1.53;;;0.80;;
751;SDS011;360;48.764;9.164;2022-10-23T09:27:45;1.00;;;0.83;;
751;SDS011;360;48.764;9.164;2022-10-23T09:30:23;1.77;;;1.17;;
751;SDS011;360;48.764;9.164;2022-10-23T09:32:50;1.33;;;1.07;;
751;SDS011;360;48.764;9.164;2022-10-23T09:35:22;2.30;;;0.80;;
751;SDS011;360;48.764;9.164;2022-10-23T09:37:50;3.63;;;1.60;;
751;SDS011;360;48.764;9.164;2022-10-23T09:40:20;1.20;;;1.10;;
751;SDS011;360;48.764;9.164;2022-10-23T09:42:58;1.10;;;0.70;;
751;SDS011;360;48.764;9.164;2022-10-23T09:45:29;0.90;;;0.70;;
751;SDS011;360;48.764;9.164;2022-10-23T09:48:10;1.00;;;0.70;;
751;SDS011;360;48.764;9.164;2022-10-23T09:53:28;1.10;;;0.57;;
751;SDS011;360;48.764;9.164;2022-10-23T09:55:58;7.60;;;1.53;;
751;SDS011;360;48.764;9.164;2022-10-23T09:58:31;0.90;;;0.70;;
751;SDS011;360;48.764;9.164;2022-10-23T10:01:00;8.33;;;5.67;;
751;SDS011;360;48.764;9.164;2022-10-23T10:03:27;4.50;;;1.90;;
751;SDS011;360;48.764;9.164;2022-10-23T10:05:59;4.70;;;1.93;;
751;SDS011;360;48.764;9.164;2022-10-23T10:08:38;2.50;;;1.67;;
751;SDS011;360;48.764;9.164;2022-10-23T10:11:10;3.60;;;2.13;;
751;SDS011;360;48.764;9.164;2022-10-23T10:16:52;1.57;;;1.23;;
751;SDS011;360;48.764;9.164;2022-10-23T10:19:35;3.23;;;0.90;;
751;SDS011;360;48.764;9.164;2022-10-23T10:22:15;1.33;;;0.70;;
751;SDS011;360;48.764;9.164;2022-10-23T10:24:51;0.80;;;0.73;;
751;SDS011;360;48.764;9.164;2022-10-23T10:27:29;3.63;;;0.80;;
751;SDS011;360;48.764;9.164;2022-10-23T10:30:04;1.13;;;0.90;;
751;SDS011;360;48.764;9.164;2022-10-23T10:32:39;1.37;;;0.70;;
751;SDS011;360;48.764;9.164;2022-10-23T10:35:16;1.03;;;0.77;;
751;SDS011;360;48.764;9.164;2022-10-23T10:38:00;0.80;;;0.50;;
751;SDS011;360;48.764;9.164;2022-10-23T10:40:45;0.83;;;0.60;;
751;SDS011;360;48.764;9.164;2022-10-23T10:43:20;1.13;;;0.60;;
751;SDS011;360;48.764;9.164;2022-10-23T10:45:56;0.90;;;0.60;;
751;SDS011;360;48.764;9.164;2022-10-23T10:48:38;3.40;;;1.37;;
751;SDS011;360;48.764;9.164;2022-10-23T10:51:08;1.03;;;0.70;;
751;SDS011;360;48.764;9.164;2022-10-23T10:53:44;0.80;;;0.60;;
751;SDS011;360;48.764;9.164;2022-10-23T10:56:24;0.70;;;0.50;;
751;SDS011;360;48.764;9.164;2022-10-23T10:58:54;1.00;;;0.73;;
751;SDS011;360;48.764;9.164;2022-10-23T11:01:24;0.83;;;0.63;;
751;SDS011;360;48.764;9.164;2022-10-23T11:03:58;1.03;;;0.80;;
751;SDS011;360;48.764;9.164;2022-10-23T11:06:30;0.90;;;0.63;;
751;SDS011;360;48.764;9.164;2022-10-23T11:09:04;1.17;;;1.03;;
751;SDS011;360;48.764;9.164;2022-10-23T11:11:38;1.03;;;0.77;;
751;SDS011;360;48.764;9.164;2022-10-23T11:14:05;1.10;;;0.70;;
751;SDS011;360;48.764;9.164;2022-10-23T11:16:41;0.90;;;0.60;;
751;SDS011;360;48.764;9.164;2022-10-23T11:19:12;1.40;;;0.70;;
751;SDS011;360;48.764;9.164;2022-10-23T11:21:46;0.63;;;0.50;;
751;SDS011;360;48.764;9.164;2022-10-23T11:24:38;1.33;;;0.70;;
751;SDS011;360;48.764;9.164;2022-10-23T11:27:36;1.00;;;0.60;;
751;SDS011;360;48.764;9.164;2022-10-23T11:30:24;1.10;;;0.73;;
751;SDS011;360;48.764;9.164;2022-10-23T11:33:04;1.33;;;0.83;;
751;SDS011;360;48.764;9.164;2022-10-23T11:35:53;1.67;;;1.00;;
751;SDS011;360;48.764;9.164;2022-10-23T11:38:30;1.27;;;0.73;;
751;SDS011;360;48.764;9.164;2022-10-23T11:41:01;1.00;;;0.80;;
751;SDS011;360;48.764;9.164;2022-10-23T11:43:31;1.23;;;0.70;;
751;SDS011;360;48.764;9.164;2022-10-23T11:46:10;1.50;;;1.10;;
751;SDS011;360;48.764;9.164;2022-10-23T11:48:38;3.57;;;2.93;;
751;SDS011;360;48.764;9.164;2022-10-23T11:54:03;1.97;;;1.00;;
751;SDS011;360;48.764;9.164;2022-10-23T11:56:32;1.60;;;0.80;;
751;SDS011;360;48.764;9.164;2022-10-23T11:59:15;1.97;;;0.87;;
751;SDS011;360;48.764;9.164;2022-10-23T12:01:47;1.17;;;0.70;;
751;SDS011;360;48.764;9.164;2022-10-23T12:04:17;1.57;;;0.70;;
751;SDS011;360;48.764;9.164;2022-10-23T12:06:48;1.17;;;0.80;;
751;SDS011;360;48.764;9.164;2022-10-23T12:09:21;1.20;;;0.73;;
751;SDS011;360;48.764;9.164;2022-10-23T12:12:02;1.23;;;0.67;;
751;SDS011;360;48.764;9.164;2022-10-23T12:14:39;1.27;;;0.70;;
751;SDS011;360;48.764;9.164;2022-10-23T12:20:14;0.90;;;0.80;;
751;SDS011;360;48.764;9.164;2022-10-23T12:22:46;1.13;;;0.70;;
751;SDS011;360;48.764;9.164;2022-10-23T12:25:18;1.90;;;1.00;;
751;SDS011;360;48.764;9.164;2022-10-23T12:27:55;1.60;;;1.03;;
751;SDS011;360;48.764;9.164;2022-10-23T12:30:29;1.17;;;0.60;;
751;SDS011;360;48.764;9.164;2022-10-23T12:33:11;1.50;;;1.00;;
751;SDS011;360;48.764;9.164;2022-10-23T12:38:46;1.10;;;0.70;;
751;SDS011;360;48.764;9.164;2022-10-23T12:41:15;1.50;;;1.00;;
751;SDS011;360;48.764;9.164;2022-10-23T12:43:49;1.10;;;0.83;;
751;SDS011;360;48.764;9.164;2022-10-23T12:46:27;4.60;;;0.80;;
751;SDS011;360;48.764;9.164;2022-10-23T12:48:57;2.00;;;0.80;;
751;SDS011;360;48.764;9.164;2022-10-23T12:51:26;1.27;;;0.67;;
751;SDS011;360;48.764;9.164;2022-10-23T12:53:55;1.33;;;0.80;;
751;SDS011;360;48.764;9.164;2022-10-23T12:56:23;1.47;;;1.00;;
751;SDS011;360;48.764;9.164;2022-10-23T12:58:52;1.40;;;1.10;;
751;SDS011;360;48.764;9.164;2022-10-23T13:01:21;1.00;;;0.77;;
751;SDS011;360;48.764;9.164;2022-10-23T13:03:51;1.13;;;1.00;;
751;SDS011;360;48.764;9.164;2022-10-23T13:06:23;1.00;;;0.83;;
751;SDS011;360;48.764;9.164;2022-10-23T13:08:51;1.30;;;0.83;;
751;SDS011;360;48.764;9.164;2022-10-23T13:11:19;1.10;;;0.67;;
751;SDS011;360;48.764;9.164;2022-10-23T13:13:46;1.90;;;1.33;;
751;SDS011;360;48.764;9.164;2022-10-23T13:16:16;1.20;;;1.00;;
751;SDS011;360;48.764;9.164;2022-10-23T13:18:44;1.80;;;1.10;;
751;SDS011;360;48.764;9.164;2022-10-23T13:21:14;3.00;;;0.90;;
751;SDS011;360;48.764;9.164;2022-10-23T13:23:42;1.77;;;1.10;;
751;SDS011;360;48.764;9.164;2022-10-23T13:29:14;10.00;;;7.97;;
751;SDS011;360;48.764;9.164;2022-10-23T13:31:46;6.50;;;5.70;;
751;SDS011;360;48.764;9.164;2022-10-23T13:34:18;5.67;;;4.63;;
751;SDS011;360;48.764;9.164;2022-10-23T13:36:53;4.37;;;3.43;;
751;SDS011;360;48.764;9.164;2022-10-23T13:39:23;3.37;;;2.67;;
751;SDS011;360;48.764;9.164;2022-10-23T13:41:51;4.00;;;2.93;;
751;SDS011;360;48.764;9.164;2022-10-23T13:44:18;4.17;;;3.40;;
751;SDS011;360;48.764;9.164;2022-10-23T13:46:48;3.50;;;2.60;;
751;SDS011;360;48.764;9.164;2022-10-23T13:49:17;3.87;;;3.27;;
751;SDS011;360;48.764;9.164;2022-10-23T13:51:46;7.50;;;4.40;;
751;SDS011;360;48.764;9.164;2022-10-23T13:54:15;6.23;;;4.20;;
751;SDS011;360;48.764;9.164;2022-10-23T13:56:44;4.47;;;3.97;;
751;SDS011;360;48.764;9.164;2022-10-23T13:59:11;5.47;;;3.70;;
751;SDS011;360;48.764;9.164;2022-10-23T14:01:38;5.50;;;3.67;;
751;SDS011;360;48.764;9.164;2022-10-23T14:04:07;5.10;;;3.60;;
751;SDS011;360;48.764;9.164;2022-10-23T14:06:35;3.87;;;3.10;;
751;SDS011;360;48.764;9.164;2022-10-23T14:09:03;4.53;;;3.00;;
751;SDS011;360;48.764;9.164;2022-10-23T14:11:30;3.03;;;2.40;;
751;SDS011;360;48.764;9.164;2022-10-23T14:13:57;3.30;;;2.03;;
751;SDS011;360;48.764;9.164;2022-10-23T14:16:24;2.80;;;2.47;;
751;SDS011;360;48.764;9.164;2022-10-23T14:18:52;8.63;;;6.77;;
751;SDS011;360;48.764;9.164;2022-10-23T14:21:20;3.07;;;2.50;;
751;SDS011;360;48.764;9.164;2022-10-23T14:23:49;2.20;;;1.40;;
751;SDS011;360;48.764;9.164;2022-10-23T14:26:17;3.20;;;1.90;;
751;SDS011;360;48.764;9.164;2022-10-23T14:28:46;2.77;;;2.57;;
751;SDS011;360;48.764;9.164;2022-10-23T14:31:14;3.57;;;2.20;;
751;SDS011;360;48.764;9.164;2022-10-23T14:33:42;1.70;;;1.50;;
751;SDS011;360;48.764;9.164;2022-10-23T14:36:10;2.60;;;1.77;;
751;SDS011;360;48.764;9.164;2022-10-23T14:38:39;2.03;;;1.73;;
751;SDS011;360;48.764;9.164;2022-10-23T14:41:09;2.67;;;1.57;;
751;SDS011;360;48.764;9.164;2022-10-23T14:43:37;1.40;;;1.10;;
751;SDS011;360;48.764;9.164;2022-10-23T14:46:08;2.00;;;1.23;;
751;SDS011;360;48.764;9.164;2022-10-23T14:48:35;1.70;;;1.50;;
751;SDS011;360;48.764;9.164;2022-10-23T14:51:04;1.93;;;1.23;;
751;SDS011;360;48.764;9.164;2022-10-23T14:53:31;1.87;;;1.33;;
751;SDS011;360;48.764;9.164;2022-10-23T14:56:01;1.93;;;1.50;;
751;SDS011;360;48.764;9.164;2022-10-23T14:58:28;1.30;;;0.90;;
751;SDS011;360;48.764;9.164;2022-10-23T15:00:56;2.03;;;1.30;;
751;SDS011;360;48.764;9.164;2022-10-23T15:03:23;3.10;;;1.90;;
751;SDS011;360;48.764;9.164;2022-10-23T15:05:51;1.90;;;1.40;;
751;SDS011;360;48.764;9.164;2022-10-23T15:08:18;1.50;;;1.00;;
751;SDS011;360;48.764;9.164;2022-10-23T15:10:45;1.77;;;1.50;;
751;SDS011;360;48.764;9.164;2022-10-23T15:13:13;1.43;;;1.33;;
751;SDS011;360;48.764;9.164;2022-10-23T15:15:40;2.20;;;1.60;;
751;SDS011;360;48.764;9.164;2022-10-23T15:18:06;1.30;;;1.20;;
751;SDS011;360;48.764;9.164;2022-10-23T15:20:33;1.90;;;1.20;;
751;SDS011;360;48.764;9.164;2022-10-23T15:23:00;1.80;;;1.40;;
751;SDS011;360;48.764;9.164;2022-10-23T15:25:28;2.53;;;1.93;;
751;SDS011;360;48.764;9.164;2022-10-23T15:27:54;2.77;;;1.70;;
751;SDS011;360;48.764;9.164;2022-10-23T15:30:23;1.40;;;1.20;;
751;SDS011;360;48.764;9.164;2022-10-23T15:32:50;2.33;;;1.20;;
751;SDS011;360;48.764;9.164;2022-10-23T15:35:17;3.30;;;2.00;;
751;SDS011;360;48.764;9.164;2022-10-23T15:37:44;2.97;;;1.77;;
751;SDS011;360;48.764;9.164;2022-10-23T15:40:11;2.87;;;1.93;;
751;SDS011;360;48.764;9.164;2022-10-23T15:42:38;2.17;;;1.60;;
751;SDS011;360;48.764;9.164;2022-10-23T15:45:05;2.37;;;1.40;;
751;SDS011;360;48.764;9.164;2022-10-23T15:47:34;2.40;;;1.80;;
751;SDS011;360;48.764;9.164;2022-10-23T15:50:01;3.60;;;1.90;;
751;SDS011;360;48.764;9.164;2022-10-23T15:52:28;3.40;;;2.20;;
751;SDS011;360;48.764;9.164;2022-10-23T15:54:54;2.70;;;1.87;;
751;SDS011;360;48.764;9.164;2022-10-23T15:57:21;2.00;;;1.70;;
751;SDS011;360;48.764;9.164;2022-10-23T15:59:48;2.40;;;1.20;;
751;SDS011;360;48.764;9.164;2022-10-23T16:02:16;1.97;;;1.30;;
751;SDS011;360;48.764;9.164;2022-10-23T16:04:44;2.67;;;1.50;;
751;SDS011;360;48.764;9.164;2022-10-23T16:07:11;1.67;;;1.37;;
751;SDS011;360;48.764;9.164;2022-10-23T16:09:37;2.87;;;1.97;;
751;SDS011;360;48.764;9.164;2022-10-23T16:12:04;4.73;;;2.03;;
751;SDS011;360;48.764;9.164;2022-10-23T16:14:32;2.50;;;2.00;;
751;SDS011;360;48.764;9.164;2022-10-23T16:16:58;4.50;;;1.90;;
751;SDS011;360;48.764;9.164;2022-10-23T16:19:25;2.20;;;1.53;;